createdAt,value
2023-04-16T00:00:58.282Z,74.88
2023-04-16T00:03:25.095Z,70.65
2023-04-16T00:05:51.705Z,77.45
2023-04-16T00:08:18.060Z,78.45
2023-04-16T00:10:44.552Z,83.03
2023-04-16T00:13:10.922Z,81.68
2023-04-16T00:15:37.346Z,80.22
2023-04-16T00:18:03.792Z,92.32
2023-04-16T00:20:30.309Z,82.00
2023-04-16T00:22:56.746Z,104.67
2023-04-16T00:25:23.280Z,118.55
2023-04-16T00:27:49.701Z,88.22
2023-04-16T00:30:16.599Z,106.88
2023-04-16T00:32:43.036Z,134.55
2023-04-16T00:35:09.623Z,104.37
2023-04-16T00:37:36.003Z,77.07
2023-04-16T00:40:02.395Z,96.80
2023-04-16T00:42:28.761Z,98.55
2023-04-16T00:44:55.212Z,95.72
2023-04-16T00:47:21.892Z,99.77
2023-04-16T00:49:49.056Z,106.50
2023-04-16T00:52:15.703Z,90.03
2023-04-16T00:54:42.183Z,93.47
2023-04-16T00:57:09.062Z,79.55
2023-04-16T00:59:35.615Z,81.33
2023-04-16T01:02:02.165Z,74.75
2023-04-16T01:04:30.996Z,95.03
2023-04-16T01:06:57.537Z,89.40
2023-04-16T01:09:24.014Z,138.30
2023-04-16T01:11:50.480Z,131.07
2023-04-16T01:14:16.869Z,124.13
2023-04-16T01:16:43.257Z,187.68
2023-04-16T01:19:09.914Z,178.65
2023-04-16T01:21:36.469Z,146.32
2023-04-16T01:24:04.572Z,168.53
2023-04-16T01:26:31.507Z,105.55
2023-04-16T01:28:58.619Z,167.15
2023-04-16T01:31:25.295Z,104.22
2023-04-16T01:33:51.714Z,164.98
2023-04-16T01:36:18.238Z,160.83
2023-04-16T01:38:44.585Z,90.68
2023-04-16T01:41:10.949Z,97.10
2023-04-16T01:43:39.684Z,120.18
2023-04-16T01:46:39.969Z,142.25
2023-04-16T01:49:07.339Z,114.33
2023-04-16T01:51:33.961Z,166.90
2023-04-16T01:54:00.943Z,136.48
2023-04-16T01:56:27.388Z,117.38
2023-04-16T01:58:53.787Z,147.93
2023-04-16T02:01:20.393Z,140.63
2023-04-16T02:03:47.626Z,141.00
2023-04-16T02:06:14.832Z,148.27
2023-04-16T02:08:41.696Z,120.00
2023-04-16T02:11:08.234Z,158.10
2023-04-16T02:13:34.784Z,218.17
2023-04-16T02:16:01.204Z,141.18
2023-04-16T02:18:27.918Z,146.07
2023-04-16T02:20:54.331Z,179.95
2023-04-16T02:23:20.744Z,131.85
2023-04-16T02:25:47.904Z,164.60
2023-04-16T02:28:17.124Z,148.43
2023-04-16T02:30:43.873Z,124.65
2023-04-16T02:33:12.107Z,177.00
2023-04-16T02:35:39.680Z,185.43
2023-04-16T02:38:06.704Z,103.57
2023-04-16T02:40:33.163Z,143.52
2023-04-16T02:42:59.581Z,150.05
2023-04-16T02:45:26.041Z,124.20
2023-04-16T02:47:52.478Z,177.93
2023-04-16T02:50:19.159Z,120.17
2023-04-16T02:52:45.734Z,139.88
2023-04-16T02:55:12.225Z,121.78
2023-04-16T02:57:38.670Z,101.40
2023-04-16T03:00:05.693Z,105.88
2023-04-16T03:02:32.166Z,94.03
2023-04-16T03:04:58.661Z,100.45
2023-04-16T03:07:25.832Z,125.78
2023-04-16T03:09:52.304Z,91.95
2023-04-16T03:12:18.658Z,114.45
2023-04-16T03:14:45.198Z,88.63
2023-04-16T03:17:11.590Z,100.68
2023-04-16T03:19:37.988Z,101.65
2023-04-16T03:22:04.934Z,107.97
2023-04-16T03:24:32.219Z,130.02
2023-04-16T03:26:58.876Z,91.07
2023-04-16T03:29:26.761Z,110.72
2023-04-16T03:31:53.302Z,107.35
2023-04-16T03:34:19.661Z,92.22
2023-04-16T03:36:46.337Z,91.38
2023-04-16T03:39:12.771Z,86.40
2023-04-16T03:41:39.184Z,86.03
2023-04-16T03:44:05.737Z,79.88
2023-04-16T03:46:32.268Z,92.85
2023-04-16T03:48:58.680Z,88.68
2023-04-16T03:51:25.057Z,93.00
2023-04-16T03:53:51.565Z,85.55
2023-04-16T03:56:18.013Z,76.88
2023-04-16T03:58:44.389Z,70.95
2023-04-16T04:01:10.920Z,71.45
2023-04-16T04:03:37.495Z,64.67
2023-04-16T04:06:08.347Z,70.18
2023-04-16T04:08:34.898Z,72.15
2023-04-16T04:11:01.269Z,75.18
2023-04-16T04:13:27.696Z,69.47
2023-04-16T04:15:54.222Z,72.30
2023-04-16T04:18:20.694Z,74.63
2023-04-16T04:20:47.043Z,66.28
2023-04-16T04:23:13.439Z,68.88
2023-04-16T04:25:39.845Z,69.93
2023-04-16T04:28:06.207Z,65.67
2023-04-16T04:30:32.632Z,71.93
2023-04-16T04:32:59.012Z,70.00
2023-04-16T04:35:25.507Z,75.68
2023-04-16T04:37:51.918Z,67.75
2023-04-16T04:40:18.369Z,75.17
2023-04-16T04:42:44.742Z,64.80
2023-04-16T04:45:11.570Z,73.47
2023-04-16T04:47:37.960Z,62.30
2023-04-16T04:50:04.662Z,60.88
2023-04-16T04:52:31.182Z,73.83
2023-04-16T04:54:57.548Z,74.28
2023-04-16T04:57:23.916Z,62.50
2023-04-16T04:59:50.334Z,64.05
2023-04-16T05:02:16.792Z,56.15
2023-04-16T05:04:43.338Z,64.70
2023-04-16T05:07:09.753Z,61.85
2023-04-16T05:09:36.340Z,61.80
2023-04-16T05:12:03.466Z,56.30
2023-04-16T05:14:29.857Z,61.17
2023-04-16T05:16:56.470Z,49.17
2023-04-16T05:19:22.892Z,59.00
2023-04-16T05:21:49.360Z,53.53
2023-04-16T05:24:15.711Z,52.03
2023-04-16T05:26:42.115Z,53.33
2023-04-16T05:29:08.763Z,60.30
2023-04-16T05:31:35.359Z,57.80
2023-04-16T05:34:01.784Z,58.88
2023-04-16T05:36:28.192Z,51.40
2023-04-16T05:38:54.554Z,60.03
2023-04-16T05:41:21.101Z,52.10
2023-04-16T05:43:47.473Z,58.33
2023-04-16T05:46:13.889Z,60.78
2023-04-16T05:48:40.289Z,63.22
2023-04-16T05:51:06.742Z,64.85
2023-04-16T05:53:33.096Z,68.00
2023-04-16T05:55:59.443Z,60.65
2023-04-16T05:58:25.826Z,63.15
2023-04-16T06:00:52.303Z,61.00
2023-04-16T06:03:18.742Z,55.45
2023-04-16T06:05:45.245Z,57.87
2023-04-16T06:08:11.647Z,59.83
2023-04-16T06:10:38.068Z,53.92
2023-04-16T06:13:04.449Z,56.90
2023-04-16T06:15:30.816Z,53.70
2023-04-16T06:18:00.219Z,59.53
2023-04-16T06:20:27.315Z,60.53
2023-04-16T06:22:53.726Z,52.13
2023-04-16T06:25:20.108Z,59.90
2023-04-16T06:27:46.482Z,65.22
2023-04-16T06:30:14.140Z,60.40
2023-04-16T06:32:40.829Z,61.97
2023-04-16T06:35:07.751Z,62.55
2023-04-16T06:37:34.098Z,59.85
2023-04-16T06:40:00.551Z,63.42
2023-04-16T06:42:27.245Z,61.43
2023-04-16T06:44:53.818Z,61.75
2023-04-16T06:47:20.276Z,56.83
2023-04-16T06:49:46.981Z,57.75
2023-04-16T06:52:13.494Z,58.03
2023-04-16T06:54:39.954Z,56.80
2023-04-16T06:57:06.355Z,54.03
2023-04-16T06:59:32.718Z,62.47
2023-04-16T07:01:59.240Z,60.08
2023-04-16T07:04:25.938Z,53.03
2023-04-16T07:06:52.404Z,50.80
2023-04-16T07:09:18.819Z,59.60
2023-04-16T07:11:45.327Z,54.17
2023-04-16T07:14:11.860Z,58.15
2023-04-16T07:16:38.315Z,53.88
2023-04-16T07:19:04.711Z,54.07
2023-04-16T07:21:31.694Z,53.28
2023-04-16T07:23:58.032Z,62.65
2023-04-16T07:26:24.410Z,66.85
2023-04-16T07:28:50.806Z,52.63
2023-04-16T07:31:17.443Z,51.53
2023-04-16T07:33:44.004Z,53.65
2023-04-16T07:36:10.961Z,53.40
2023-04-16T07:38:37.360Z,49.22
2023-04-16T07:41:03.958Z,53.92
2023-04-16T07:43:30.406Z,46.43
2023-04-16T07:45:56.927Z,48.65
2023-04-16T07:48:23.433Z,49.08
2023-04-16T07:50:50.332Z,47.20
2023-04-16T07:53:16.772Z,47.72
2023-04-16T07:55:43.193Z,44.20
2023-04-16T07:58:09.694Z,44.97
2023-04-16T08:00:36.061Z,46.95
2023-04-16T08:03:02.613Z,49.10
2023-04-16T08:05:29.270Z,52.08
2023-04-16T08:07:55.968Z,42.37
2023-04-16T08:10:22.452Z,46.28
2023-04-16T08:12:48.911Z,43.70
2023-04-16T08:15:15.325Z,43.80
2023-04-16T08:17:41.765Z,42.95
2023-04-16T08:20:08.546Z,37.13
2023-04-16T08:22:34.932Z,36.35
2023-04-16T08:25:01.668Z,40.80
2023-04-16T08:27:28.020Z,38.22
2023-04-16T08:29:54.410Z,39.67
2023-04-16T08:32:20.880Z,37.50
2023-04-16T08:34:47.406Z,37.65
2023-04-16T08:37:13.783Z,38.75
2023-04-16T08:39:40.498Z,37.75
2023-04-16T08:42:30.607Z,38.10
2023-04-16T08:45:17.688Z,38.10
2023-04-16T08:47:46.914Z,36.65
2023-04-16T08:50:17.339Z,40.03
2023-04-16T08:52:51.113Z,35.70
2023-04-16T08:55:19.343Z,33.58
2023-04-16T08:57:53.765Z,29.83
2023-04-16T09:00:21.242Z,32.05
2023-04-16T09:02:48.773Z,26.50
2023-04-16T09:05:17.247Z,29.70
2023-04-16T09:07:48.003Z,52.03
2023-04-16T09:10:17.549Z,30.90
2023-04-16T09:12:44.576Z,29.52
2023-04-16T09:15:12.798Z,30.33
2023-04-16T09:17:39.889Z,28.58
2023-04-16T09:20:11.282Z,27.30
2023-04-16T09:22:39.994Z,28.23
2023-04-16T09:25:07.307Z,30.95
2023-04-16T09:27:33.812Z,26.33
2023-04-16T09:30:01.544Z,28.42
2023-04-16T09:32:29.130Z,30.75
2023-04-16T09:35:00.770Z,28.77
2023-04-16T09:37:31.048Z,29.27
2023-04-16T09:40:03.536Z,31.25
2023-04-16T09:42:36.149Z,28.05
2023-04-16T09:45:05.553Z,27.88
2023-04-16T09:47:43.603Z,26.77
2023-04-16T09:50:17.795Z,25.92
2023-04-16T09:52:50.340Z,26.90
2023-04-16T09:55:16.807Z,28.58
2023-04-16T09:57:43.192Z,27.00
2023-04-16T10:00:10.711Z,28.37
2023-04-16T10:02:42.013Z,27.30
2023-04-16T10:05:09.109Z,26.33
2023-04-16T10:07:36.993Z,25.83
2023-04-16T10:10:04.441Z,26.80
2023-04-16T10:12:32.710Z,26.57
2023-04-16T10:14:59.178Z,28.20
2023-04-16T10:17:26.421Z,30.50
2023-04-16T10:19:54.539Z,30.65
2023-04-16T10:22:21.026Z,25.85
2023-04-16T10:24:48.771Z,27.20
2023-04-16T10:27:16.580Z,25.60
2023-04-16T10:29:43.275Z,26.67
2023-04-16T10:32:10.332Z,27.20
2023-04-16T10:34:36.792Z,27.08
2023-04-16T10:37:03.199Z,25.33
2023-04-16T10:39:29.661Z,27.85
2023-04-16T10:42:12.766Z,24.75
2023-04-16T10:44:43.481Z,26.13
2023-04-16T10:47:12.928Z,29.48
2023-04-16T10:49:40.215Z,25.57
2023-04-16T10:52:14.914Z,30.27
2023-04-16T10:54:41.447Z,22.80
2023-04-16T10:57:16.060Z,25.33
2023-04-16T10:59:43.675Z,26.58
2023-04-16T11:02:14.793Z,26.47
2023-04-16T11:04:46.274Z,27.80
2023-04-16T11:07:16.393Z,27.20
2023-04-16T11:10:02.240Z,26.52
2023-04-16T11:12:34.363Z,27.27
2023-04-16T11:15:06.292Z,27.07
2023-04-16T11:17:38.053Z,24.83
2023-04-16T11:20:19.358Z,23.58
2023-04-16T11:22:48.587Z,25.52
2023-04-16T11:25:26.957Z,26.73
2023-04-16T11:27:53.832Z,26.23
2023-04-16T11:30:33.857Z,26.52
2023-04-16T11:33:09.711Z,26.45
2023-04-16T11:35:36.248Z,25.08
2023-04-16T11:38:02.642Z,23.25
2023-04-16T11:40:32.135Z,26.07
2023-04-16T11:43:27.827Z,22.83
2023-04-16T11:46:10.327Z,24.90
2023-04-16T11:48:51.611Z,25.08
2023-04-16T11:51:18.638Z,25.83
2023-04-16T11:53:46.937Z,25.10
2023-04-16T11:56:13.377Z,24.52
2023-04-16T11:58:43.148Z,25.15
2023-04-16T12:01:10.163Z,23.23
2023-04-16T12:03:44.248Z,22.30
2023-04-16T12:06:11.005Z,22.87
2023-04-16T12:08:37.508Z,24.25
2023-04-16T12:11:04.451Z,23.38
2023-04-16T12:13:30.968Z,25.38
2023-04-16T12:15:57.361Z,23.83
2023-04-16T12:18:26.886Z,26.67
2023-04-16T12:20:53.612Z,24.58
2023-04-16T12:23:34.219Z,25.25
2023-04-16T12:26:10.225Z,27.20
2023-04-16T12:28:40.741Z,26.25
2023-04-16T12:31:07.217Z,21.97
2023-04-16T12:33:33.676Z,24.70
2023-04-16T12:36:01.504Z,23.83
2023-04-16T12:38:28.580Z,29.48
2023-04-16T12:40:56.952Z,27.77
2023-04-16T12:43:23.942Z,27.60
2023-04-16T12:45:50.490Z,27.38
2023-04-16T12:48:16.953Z,25.75
2023-04-16T12:50:44.280Z,25.63
2023-04-16T12:53:11.458Z,26.83
2023-04-16T12:55:37.884Z,26.53
2023-04-16T12:58:04.281Z,27.25
2023-04-16T13:00:30.680Z,23.15
2023-04-16T13:02:57.249Z,26.85
2023-04-16T13:05:23.782Z,28.70
2023-04-16T13:07:50.209Z,26.30
2023-04-16T13:10:16.657Z,26.17
2023-04-16T13:12:43.123Z,22.60
2023-04-16T13:15:10.447Z,26.00
2023-04-16T13:17:36.939Z,24.50
2023-04-16T13:20:03.514Z,26.20
2023-04-16T13:22:30.131Z,24.38
2023-04-16T13:24:56.963Z,23.40
2023-04-16T13:27:23.343Z,24.60
2023-04-16T13:29:49.732Z,24.98
2023-04-16T13:32:16.446Z,26.40
2023-04-16T13:34:42.856Z,23.40
2023-04-16T13:37:09.238Z,24.17
2023-04-16T13:39:35.695Z,24.42
2023-04-16T13:42:02.656Z,25.92
2023-04-16T13:44:29.026Z,24.60
2023-04-16T13:46:56.144Z,27.73
2023-04-16T13:49:23.403Z,27.65
2023-04-16T13:51:49.854Z,26.85
2023-04-16T13:54:16.194Z,27.77
2023-04-16T13:56:42.689Z,26.20
2023-04-16T13:59:09.393Z,28.08
2023-04-16T14:01:35.873Z,26.98
2023-04-16T14:04:06.766Z,26.02
2023-04-16T14:06:34.740Z,27.27
2023-04-16T14:09:01.819Z,26.90
2023-04-16T14:11:28.464Z,28.33
2023-04-16T14:13:54.977Z,30.95
2023-04-16T14:16:21.523Z,28.85
2023-04-16T14:18:48.065Z,29.98
2023-04-16T14:21:14.444Z,27.23
2023-04-16T14:23:41.087Z,27.88
2023-04-16T14:26:07.583Z,29.27
2023-04-16T14:28:34.186Z,32.10
2023-04-16T14:31:00.526Z,31.25
2023-04-16T14:33:27.702Z,26.23
2023-04-16T14:35:54.744Z,30.45
2023-04-16T14:38:21.250Z,26.00
2023-04-16T14:40:48.473Z,29.88
2023-04-16T14:43:14.965Z,36.58
2023-04-16T14:45:41.695Z,31.23
2023-04-16T14:48:08.175Z,29.88
2023-04-16T14:50:37.883Z,31.42
2023-04-16T14:53:07.372Z,27.42
2023-04-16T14:55:33.780Z,27.38
2023-04-16T14:58:00.163Z,27.80
2023-04-16T15:00:27.316Z,27.40
2023-04-16T15:02:54.948Z,29.45
2023-04-16T15:05:22.206Z,30.80
2023-04-16T15:07:48.583Z,29.42
2023-04-16T15:10:15.045Z,31.43
2023-04-16T15:12:41.448Z,28.15
2023-04-16T15:15:08.706Z,30.05
2023-04-16T15:17:35.419Z,28.23
2023-04-16T15:20:01.990Z,25.38
2023-04-16T15:22:28.420Z,28.40
2023-04-16T15:24:54.790Z,27.63
2023-04-16T15:27:21.143Z,23.65
2023-04-16T15:29:49.289Z,25.40
2023-04-16T15:32:15.739Z,24.02
2023-04-16T15:34:42.144Z,27.67
2023-04-16T15:37:09.604Z,24.13
2023-04-16T15:39:36.036Z,24.15
2023-04-16T15:42:07.079Z,26.08
2023-04-16T15:44:34.327Z,25.65
2023-04-16T15:47:01.114Z,25.70
2023-04-16T15:49:27.523Z,26.38
2023-04-16T15:51:53.947Z,27.10
2023-04-16T15:54:20.331Z,26.08
2023-04-16T15:56:47.032Z,26.85
2023-04-16T15:59:13.639Z,23.83
2023-04-16T16:01:40.235Z,24.40
2023-04-16T16:04:07.979Z,24.33
2023-04-16T16:06:34.818Z,25.20
2023-04-16T16:09:01.716Z,25.45
2023-04-16T16:11:28.385Z,23.13
2023-04-16T16:13:54.881Z,25.17
2023-04-16T16:16:21.865Z,27.73
2023-04-16T16:18:48.666Z,27.92
2023-04-16T16:21:15.068Z,29.83
2023-04-16T16:23:41.468Z,28.57
2023-04-16T16:26:07.865Z,28.13
2023-04-16T16:28:37.489Z,27.38
2023-04-16T16:31:05.782Z,26.75
2023-04-16T16:33:32.204Z,27.10
2023-04-16T16:35:58.598Z,27.50
2023-04-16T16:38:25.006Z,31.95
2023-04-16T16:40:51.444Z,27.60
2023-04-16T16:43:17.846Z,24.77
2023-04-16T16:45:44.348Z,26.40
2023-04-16T16:48:10.697Z,24.70
2023-04-16T16:50:37.058Z,27.92
2023-04-16T16:53:03.704Z,24.70
2023-04-16T16:55:31.213Z,28.63
2023-04-16T16:57:58.383Z,27.77
2023-04-16T17:00:24.907Z,28.10
2023-04-16T17:02:51.994Z,27.25
2023-04-16T17:05:18.763Z,30.48
2023-04-16T17:07:45.815Z,28.98
2023-04-16T17:10:21.708Z,28.55
2023-04-16T17:12:49.517Z,27.77
2023-04-16T17:15:17.973Z,27.15
2023-04-16T17:17:45.646Z,29.95
2023-04-16T17:20:12.466Z,29.00
2023-04-16T17:22:40.187Z,28.30
2023-04-16T17:25:07.784Z,28.83
2023-04-16T17:27:34.406Z,29.92
2023-04-16T17:30:02.056Z,32.30
2023-04-16T17:32:29.760Z,30.63
2023-04-16T17:34:56.636Z,33.17
2023-04-16T17:37:23.479Z,33.73
2023-04-16T17:39:51.028Z,33.90
2023-04-16T17:42:17.531Z,35.67
2023-04-16T17:44:44.087Z,34.17
2023-04-16T17:47:10.778Z,31.58
2023-04-16T17:49:37.182Z,32.33
2023-04-16T17:52:03.691Z,35.47
2023-04-16T17:54:30.440Z,37.05
2023-04-16T17:56:57.578Z,33.65
2023-04-16T17:59:24.049Z,34.13
2023-04-16T18:01:50.578Z,34.20
2023-04-16T18:04:17.740Z,39.10
2023-04-16T18:06:44.556Z,28.65
2023-04-16T18:09:11.985Z,34.30
2023-04-16T18:11:38.440Z,35.67
2023-04-16T18:14:04.922Z,33.37
2023-04-16T18:16:31.386Z,35.90
2023-04-16T18:18:57.857Z,35.95
2023-04-16T18:21:24.357Z,38.05
2023-04-16T18:23:50.818Z,34.30
2023-04-16T18:26:20.546Z,40.83
2023-04-16T18:28:48.573Z,44.97
2023-04-16T18:31:15.047Z,43.95
2023-04-16T18:33:55.555Z,39.33
2023-04-16T18:36:22.560Z,51.33
2023-04-16T18:39:01.021Z,48.33
2023-04-16T18:41:29.506Z,45.28
2023-04-16T18:43:56.116Z,45.22
2023-04-16T18:46:22.590Z,47.30
2023-04-16T18:48:49.106Z,48.13
2023-04-16T18:51:16.494Z,50.53
2023-04-16T18:53:44.189Z,51.17
2023-04-16T18:56:11.602Z,51.63
2023-04-16T18:58:38.148Z,50.22
2023-04-16T19:01:06.100Z,48.25
2023-04-16T19:03:33.319Z,52.13
2023-04-16T19:06:00.097Z,52.00
2023-04-16T19:08:27.097Z,50.38
2023-04-16T19:10:53.465Z,52.50
2023-04-16T19:13:19.956Z,51.72
2023-04-16T19:15:46.380Z,53.67
2023-04-16T19:18:12.919Z,53.13
2023-04-16T19:20:39.545Z,55.17
2023-04-16T19:23:08.322Z,53.38
2023-04-16T19:25:37.367Z,53.17
2023-04-16T19:28:03.986Z,57.77
2023-04-16T19:30:30.953Z,58.10
2023-04-16T19:32:57.669Z,59.30
2023-04-16T19:35:24.264Z,58.92
2023-04-16T19:37:50.956Z,63.60
2023-04-16T19:40:17.391Z,66.27
2023-04-16T19:42:45.407Z,70.18
2023-04-16T19:45:11.934Z,72.75
2023-04-16T19:47:38.572Z,71.43
2023-04-16T19:50:05.778Z,70.13
2023-04-16T19:52:37.263Z,74.07
2023-04-16T19:55:03.954Z,72.50
2023-04-16T19:57:30.449Z,71.88
2023-04-16T19:59:57.055Z,74.18
2023-04-16T20:02:23.515Z,84.97
2023-04-16T20:04:50.725Z,72.57
2023-04-16T20:07:17.424Z,89.20
2023-04-16T20:09:43.820Z,73.97
2023-04-16T20:12:10.426Z,77.40
2023-04-16T20:14:36.836Z,67.30
2023-04-16T20:17:03.495Z,74.57
2023-04-16T20:19:33.295Z,72.63
2023-04-16T20:21:59.657Z,70.80
2023-04-16T20:24:26.509Z,67.35
2023-04-16T20:26:52.911Z,67.78
2023-04-16T20:29:19.378Z,67.77
2023-04-16T20:31:46.125Z,67.97
2023-04-16T20:34:12.794Z,71.25
2023-04-16T20:36:39.211Z,75.47
2023-04-16T20:39:07.187Z,72.55
2023-04-16T20:41:33.949Z,72.83
2023-04-16T20:44:05.185Z,68.20
2023-04-16T20:46:34.402Z,72.78
2023-04-16T20:49:01.138Z,71.75
2023-04-16T20:51:27.631Z,67.85
2023-04-16T20:53:54.094Z,70.50
2023-04-16T20:56:20.485Z,67.68
2023-04-16T20:58:46.845Z,68.15
2023-04-16T21:01:13.354Z,72.72
2023-04-16T21:03:39.873Z,74.13
2023-04-16T21:06:06.351Z,72.67
2023-04-16T21:08:32.780Z,63.20
2023-04-16T21:10:59.185Z,64.70
2023-04-16T21:13:25.569Z,70.72
2023-04-16T21:15:52.206Z,72.72
2023-04-16T21:18:18.630Z,69.57
2023-04-16T21:20:45.057Z,69.05
2023-04-16T21:23:11.608Z,67.28
2023-04-16T21:25:38.045Z,67.25
2023-04-16T21:28:04.925Z,64.50
2023-04-16T21:30:31.379Z,65.30
2023-04-16T21:32:57.800Z,61.50
2023-04-16T21:35:24.319Z,64.50
2023-04-16T21:37:50.736Z,61.92
2023-04-16T21:40:17.221Z,65.93
2023-04-16T21:42:44.424Z,61.17
2023-04-16T21:45:11.231Z,64.47
2023-04-16T21:47:38.269Z,59.92
2023-04-16T21:50:05.055Z,63.90
2023-04-16T21:52:32.814Z,56.08
2023-04-16T21:55:00.376Z,55.00
2023-04-16T21:57:26.858Z,54.83
2023-04-16T21:59:53.318Z,57.10
2023-04-16T22:02:19.786Z,52.13
2023-04-16T22:04:46.273Z,55.88
2023-04-16T22:07:12.724Z,53.00
2023-04-16T22:09:40.337Z,49.97
2023-04-16T22:12:07.066Z,56.25
2023-04-16T22:14:38.349Z,54.67
2023-04-16T22:17:05.673Z,55.80
2023-04-16T22:19:32.136Z,59.90
2023-04-16T22:21:58.575Z,56.25
2023-04-16T22:24:24.928Z,60.60
2023-04-16T22:26:51.291Z,61.35
2023-04-16T22:29:17.658Z,58.63
2023-04-16T22:31:44.135Z,60.43
2023-04-16T22:34:10.529Z,59.22
2023-04-16T22:36:36.906Z,64.03
2023-04-16T22:39:08.266Z,63.95
2023-04-16T22:41:37.797Z,65.65
2023-04-16T22:44:04.203Z,64.93
2023-04-16T22:46:30.974Z,59.60
2023-04-16T22:48:57.852Z,63.17
2023-04-16T22:51:24.478Z,61.00
2023-04-16T22:53:51.786Z,62.22
2023-04-16T22:56:19.689Z,65.70
2023-04-16T22:58:46.445Z,63.95
2023-04-16T23:01:12.952Z,64.03
2023-04-16T23:03:39.496Z,65.22
2023-04-16T23:06:06.647Z,62.45
2023-04-16T23:08:33.034Z,62.43
2023-04-16T23:10:59.444Z,68.13
2023-04-16T23:13:25.901Z,64.93
2023-04-16T23:15:52.395Z,62.38
2023-04-16T23:18:18.816Z,63.42
2023-04-16T23:20:45.222Z,60.13
2023-04-16T23:23:11.572Z,60.67
2023-04-16T23:25:41.048Z,57.88
2023-04-16T23:28:07.506Z,57.67
2023-04-16T23:30:33.870Z,55.78
2023-04-16T23:33:00.299Z,66.93
2023-04-16T23:35:26.712Z,62.38
2023-04-16T23:37:53.080Z,60.85
2023-04-16T23:40:19.459Z,59.58
2023-04-16T23:42:46.018Z,63.90
2023-04-16T23:45:12.418Z,65.33
2023-04-16T23:47:38.893Z,64.45
2023-04-16T23:50:06.130Z,61.15
2023-04-16T23:52:32.518Z,63.45
2023-04-16T23:54:58.893Z,62.92
2023-04-16T23:57:25.519Z,58.63
2023-04-16T23:59:51.893Z,59.72
